createdAt,value
2023-02-11T00:05:20.587Z,45.97
2023-02-11T00:20:22.578Z,42.30
2023-02-11T00:35:24.695Z,43.47
2023-02-11T00:50:26.776Z,46.45
2023-02-11T01:05:29.367Z,45.05
2023-02-11T01:20:31.580Z,40.78
2023-02-11T01:35:33.647Z,42.40
2023-02-11T01:50:36.372Z,46.47
2023-02-11T02:05:45.789Z,44.15
2023-02-11T02:21:09.309Z,44.90
2023-02-11T02:36:24.021Z,46.63
2023-02-11T02:52:00.535Z,43.10
2023-02-11T03:07:53.525Z,37.22
2023-02-11T03:23:02.996Z,34.20
2023-02-11T03:38:15.101Z,34.57
2023-02-11T03:53:18.200Z,28.90
2023-02-11T04:08:20.696Z,31.30
2023-02-11T04:23:22.775Z,35.88
2023-02-11T04:38:24.812Z,41.40
2023-02-11T04:53:26.855Z,39.78
2023-02-11T05:08:29.133Z,44.80
2023-02-11T05:23:31.179Z,40.72
2023-02-11T05:38:33.850Z,40.25
2023-02-11T05:53:36.217Z,46.95
2023-02-11T06:08:39.396Z,47.42
2023-02-11T06:23:41.683Z,47.28
2023-02-11T06:38:44.129Z,54.28
2023-02-11T06:53:47.294Z,56.88
2023-02-11T07:08:49.680Z,59.40
2023-02-11T07:23:52.191Z,58.10
2023-02-11T07:38:54.417Z,53.30
2023-02-11T07:53:58.809Z,60.35
2023-02-11T08:09:06.619Z,60.83
2023-02-11T08:24:09.067Z,63.63
2023-02-11T08:39:20.884Z,61.60
2023-02-11T08:54:23.282Z,73.00
2023-02-11T09:09:25.379Z,70.55
2023-02-11T09:24:27.461Z,76.68
2023-02-11T09:39:29.684Z,80.40
2023-02-11T09:54:53.034Z,84.15
2023-02-11T10:10:23.406Z,75.40
2023-02-11T10:25:54.882Z,82.97
2023-02-11T10:40:57.152Z,77.57
2023-02-11T10:55:59.336Z,75.82
2023-02-11T11:11:08.535Z,77.60
2023-02-11T11:26:15.777Z,73.90
2023-02-11T11:41:25.112Z,81.82
2023-02-11T11:56:33.856Z,81.10
2023-02-11T12:12:23.946Z,76.38
2023-02-11T12:27:46.970Z,63.85
2023-02-11T12:43:14.177Z,54.30
2023-02-11T12:58:27.339Z,58.65
2023-02-11T13:13:39.602Z,58.75
2023-02-11T13:28:44.557Z,57.00
2023-02-11T13:44:23.886Z,60.00
2023-02-11T13:59:26.143Z,52.65
2023-02-11T14:14:33.853Z,47.15
2023-02-11T14:30:08.333Z,49.17
2023-02-11T14:45:15.557Z,54.47
2023-02-11T15:00:23.132Z,46.35
2023-02-11T15:15:27.466Z,40.38
2023-02-11T15:30:34.394Z,44.47
2023-02-11T15:46:01.766Z,47.80
2023-02-11T16:01:05.340Z,44.55
2023-02-11T16:16:20.538Z,45.03
2023-02-11T16:31:23.448Z,37.38
2023-02-11T16:46:28.231Z,41.58
2023-02-11T17:01:31.379Z,41.15
2023-02-11T17:16:35.420Z,33.10
2023-02-11T17:31:39.625Z,32.30
2023-02-11T17:46:43.112Z,33.90
2023-02-11T18:01:46.204Z,34.63
2023-02-11T18:16:53.953Z,29.40
2023-02-11T18:31:58.069Z,32.05
2023-02-11T18:47:01.947Z,26.05
2023-02-11T19:02:05.100Z,22.92
2023-02-11T19:17:11.783Z,22.85
2023-02-11T19:32:18.960Z,19.80
2023-02-11T19:47:28.059Z,19.25
2023-02-11T20:02:32.053Z,20.75
2023-02-11T20:17:35.173Z,19.80
2023-02-11T20:32:39.433Z,16.98
2023-02-11T20:47:43.354Z,5.95
2023-02-11T21:02:46.299Z,2.45
2023-02-11T21:17:49.155Z,2.72
2023-02-11T21:32:55.749Z,2.97
2023-02-11T21:47:58.473Z,2.45
2023-02-11T22:03:01.154Z,4.22
2023-02-11T22:18:03.497Z,5.78
2023-02-11T22:33:05.937Z,5.57
2023-02-11T22:48:07.933Z,6.07
2023-02-11T23:03:11.278Z,3.63
2023-02-11T23:18:14.461Z,6.10
2023-02-11T23:33:16.531Z,3.75
2023-02-11T23:48:19.018Z,4.70
